Time;durP1;ratioP1;P1;durP2;ratioP2;P2;SDS_P1;SDS_P2;PMS_P1;PMS_P2;Temp;Humidity;BMP_temperature;BMP_pressure;BME280_temperature;BME280_humidity;BME280_pressure;Samples;Min_cycle;Max_cycle;Signal;HPM_P1;HPM_P2
2021/10/23 00:01:26;;;;;;;11.68;6.60;;;;;;;9.16;56.54;99223.99;1750668;82;21044;-71
2021/10/23 00:03:52;;;;;;;11.83;5.95;;;;;;;9.18;56.43;99221.27;1743945;82;20982;-70
2021/10/23 00:06:19;;;;;;;17.37;6.08;;;;;;;9.20;56.17;99219.64;1738836;82;21091;-70
2021/10/23 00:08:47;;;;;;;12.35;6.15;;;;;;;9.21;56.02;99212.56;1722006;82;20976;-70
2021/10/23 00:11:13;;;;;;;12.93;6.28;;;;;;;9.21;55.83;99200.91;1716531;83;21142;-71
2021/10/23 00:13:40;;;;;;;14.18;6.08;;;;;;;9.20;55.62;99206.06;1730930;82;20991;-70
2021/10/23 00:16:07;;;;;;;;;;;;;;;9.18;55.47;99198.72;1697119;83;21499;-70
2021/10/23 00:18:33;;;;;;;19.12;8.55;;;;;;;9.15;55.31;99196.56;1689113;85;20548;-71
2021/10/23 00:21:00;;;;;;;13.72;7.28;;;;;;;9.05;55.31;99190.62;1690549;83;21119;-71
2021/10/23 00:23:26;;;;;;;14.43;6.35;;;;;;;9.02;55.17;99197.14;1712688;82;21550;-70
2021/10/23 00:25:53;;;;;;;11.65;5.70;;;;;;;8.95;55.03;99187.38;1764446;81;21056;-70
2021/10/23 00:28:19;;;;;;;12.85;6.28;;;;;;;8.92;54.94;99191.19;1747213;81;21982;-71
2021/10/23 00:30:47;;;;;;;11.33;6.08;;;;;;;8.86;54.96;99189.55;1745774;82;21551;-70
2021/10/23 00:33:13;;;;;;;10.95;5.30;;;;;;;8.80;55.00;99195.54;1695834;83;21046;-70
2021/10/23 00:35:41;;;;;;;10.80;5.45;;;;;;;8.74;55.12;99197.18;1690811;85;21071;-70
2021/10/23 00:38:08;;;;;;;8.53;4.67;;;;;;;8.64;55.25;99198.55;1736558;81;21019;-71
2021/10/23 00:40:35;;;;;;;13.00;5.70;;;;;;;8.54;55.52;99199.91;1749796;81;21665;-71
2021/10/23 00:43:01;;;;;;;;;;;;;;;8.39;55.84;99201.53;1751726;82;21035;-70
2021/10/23 00:45:28;;;;;;;12.13;4.83;;;;;;;8.29;56.10;99200.70;1744806;81;20401;-70
2021/10/23 00:47:54;;;;;;;11.08;5.58;;;;;;;8.12;56.52;99196.84;1737712;82;20999;-70
2021/10/23 00:50:21;;;;;;;12.95;5.47;;;;;;;8.04;56.67;99206.88;1755687;82;21034;-70
2021/10/23 00:52:49;;;;;;;9.33;5.17;;;;;;;7.97;56.83;99206.31;1753990;82;21047;-71
2021/10/23 00:55:16;;;;;;;11.60;5.37;;;;;;;7.91;57.04;99210.89;1743833;82;21566;-70
2021/10/23 00:57:42;;;;;;;;;;;;;;;7.85;57.19;99213.86;1757689;81;21058;-70
2021/10/23 01:00:09;;;;;;;12.98;5.08;;;;;;;7.80;57.29;99209.23;1758845;81;20508;-70
2021/10/23 01:02:36;;;;;;;9.55;5.08;;;;;;;7.70;57.56;99209.73;1746333;81;21103;-70
2021/10/23 01:05:05;;;;;;;10.82;4.95;;;;;;;7.66;57.65;99212.16;1744916;81;21591;-70
2021/10/23 01:07:32;;;;;;;11.43;4.62;;;;;;;7.63;57.68;99210.52;1752361;81;21624;-70
2021/10/23 01:10:01;;;;;;;13.05;5.20;;;;;;;7.60;57.81;99212.41;1747495;81;21693;-70
2021/10/23 01:12:28;;;;;;;12.88;4.90;;;;;;;7.62;57.65;99211.59;1723025;81;21042;-70
2021/10/23 01:14:54;;;;;;;;;;;;;;;7.62;57.53;99210.23;1752015;82;21004;-70
2021/10/23 01:17:22;;;;;;;9.05;4.15;;;;;;;7.58;57.47;99206.45;1745149;82;20107;-70
2021/10/23 01:19:53;;;;;;;12.07;4.47;;;;;;;7.48;57.58;99207.20;1747210;82;21044;-70
2021/10/23 01:22:27;;;;;;;11.33;4.47;;;;;;;7.42;57.59;99200.97;1753487;82;21545;-70
2021/10/23 01:24:55;;;;;;;10.38;4.53;;;;;;;7.39;57.60;99198.79;1716967;83;21068;-69
2021/10/23 01:27:22;;;;;;;7.58;4.30;;;;;;;7.35;57.76;99200.92;1750633;81;21090;-69
2021/10/23 01:29:49;;;;;;;9.50;4.30;;;;;;;7.29;57.83;99196.04;1748598;81;21501;-70
2021/10/23 01:32:15;;;;;;;13.08;4.53;;;;;;;7.23;57.89;99198.95;1725250;82;21114;-70
2021/10/23 01:34:42;;;;;;;8.75;4.60;;;;;;;7.16;58.03;99195.14;1726284;82;21050;-69
2021/10/23 01:37:08;;;;;;;8.75;4.42;;;;;;;7.09;58.05;99199.15;1746286;82;21042;-69
2021/10/23 01:39:35;;;;;;;9.53;4.67;;;;;;;7.01;58.24;99198.56;1741351;82;21039;-70
2021/10/23 01:42:02;;;;;;;13.03;5.08;;;;;;;6.94;58.47;99203.95;1730803;82;21549;-69
2021/10/23 01:44:33;;;;;;;10.68;4.60;;;;;;;6.91;58.55;99203.09;1752956;82;20983;-70
2021/10/23 01:47:00;;;;;;;10.05;4.70;;;;;;;6.92;58.57;99202.03;1749507;82;21042;-70
2021/10/23 01:49:27;;;;;;;13.90;5.28;;;;;;;6.89;58.68;99199.85;1713276;82;20968;-70
2021/10/23 01:51:54;;;;;;;12.58;5.87;;;;;;;6.85;59.03;99200.09;1740525;82;21145;-70
2021/10/23 01:54:20;;;;;;;12.30;6.08;;;;;;;6.77;59.41;99196.51;1730661;82;21506;-69
2021/10/23 01:56:47;;;;;;;;;;;;;;;6.71;59.70;99198.91;1755409;82;21051;-70
2021/10/23 01:59:13;;;;;;;13.78;6.33;;;;;;;6.65;59.99;99198.06;1747907;82;20446;-69
2021/10/23 02:01:40;;;;;;;14.07;6.87;;;;;;;6.54;60.47;99200.94;1751240;82;21023;-69
2021/10/23 02:04:06;;;;;;;14.18;6.83;;;;;;;6.50;60.69;99202.81;1750198;82;21002;-69
2021/10/23 02:06:33;;;;;;;16.73;6.72;;;;;;;6.45;60.80;99206.81;1726585;82;21016;-69
2021/10/23 02:09:01;;;;;;;15.58;6.90;;;;;;;6.39;61.10;99211.91;1748166;82;21086;-70
2021/10/23 02:11:28;;;;;;;13.22;6.12;;;;;;;6.37;61.34;99215.42;1748955;82;21062;-70
2021/10/23 02:13:54;;;;;;;12.30;6.97;;;;;;;6.40;61.28;99208.14;1741146;82;21028;-71
2021/10/23 02:16:20;;;;;;;11.90;6.28;;;;;;;6.39;61.17;99202.45;1736070;82;21550;-70
2021/10/23 02:18:48;;;;;;;16.25;6.67;;;;;;;6.35;61.38;99210.79;1745974;82;21031;-69
2021/10/23 02:21:15;;;;;;;15.05;5.80;;;;;;;6.32;61.61;99214.01;1752405;82;21797;-69
2021/10/23 02:23:41;;;;;;;;;;;;;;;6.30;61.81;99214.81;1755909;82;21066;-70
2021/10/23 02:26:07;;;;;;;13.83;6.10;;;;;;;6.26;61.89;99210.98;1737392;82;20101;-69
2021/10/23 02:28:34;;;;;;;12.43;6.15;;;;;;;6.21;62.10;99216.87;1732930;82;21046;-69
2021/10/23 02:31:00;;;;;;;12.70;5.45;;;;;;;6.23;62.13;99213.39;1734357;82;21062;-70
2021/10/23 02:33:27;;;;;;;11.38;5.87;;;;;;;6.30;62.03;99215.34;1732622;81;21094;-70
2021/10/23 02:35:53;;;;;;;12.25;5.25;;;;;;;6.32;62.08;99223.47;1744689;82;21058;-70
2021/10/23 02:38:20;;;;;;;10.03;4.75;;;;;;;6.32;62.09;99227.53;1744838;82;21051;-70
2021/10/23 02:40:47;;;;;;;11.57;5.80;;;;;;;6.33;62.14;99221.05;1744948;82;21120;-71
2021/10/23 02:43:13;;;;;;;10.70;4.97;;;;;;;6.37;62.16;99223.53;1753058;82;21494;-70
2021/10/23 02:45:39;;;;;;;10.90;5.08;;;;;;;6.40;62.05;99224.37;1752169;82;21059;-70
2021/10/23 02:48:06;;;;;;;8.45;5.03;;;;;;;6.44;61.90;99233.59;1747104;82;21044;-70
2021/10/23 02:50:33;;;;;;;10.78;4.90;;;;;;;6.50;61.85;99235.80;1745262;82;21110;-70
2021/10/23 02:53:00;;;;;;;14.30;4.70;;;;;;;6.65;61.59;99223.77;1735578;82;21042;-70
2021/10/23 02:55:27;;;;;;;12.05;4.97;;;;;;;6.80;61.24;99228.48;1749467;82;21027;-71
2021/10/23 02:57:53;;;;;;;10.72;5.03;;;;;;;6.86;60.95;99224.73;1744764;82;21495;-71
2021/10/23 03:00:21;;;;;;;11.25;5.45;;;;;;;6.90;60.67;99221.25;1728008;82;21081;-70
2021/10/23 03:02:50;;;;;;;10.85;4.70;;;;;;;6.93;60.48;99226.67;1742387;82;21046;-71
2021/10/23 03:05:17;;;;;;;10.30;5.25;;;;;;;6.95;60.27;99227.21;1741835;82;21106;-69
2021/10/23 03:07:43;;;;;;;9.80;5.30;;;;;;;6.93;60.22;99230.73;1748757;82;21038;-69
2021/10/23 03:10:10;;;;;;;11.18;4.90;;;;;;;6.92;60.17;99235.86;1737558;82;21083;-70
2021/10/23 03:12:36;;;;;;;;;;;;;;;6.91;60.16;99239.63;1743098;82;21043;-70
2021/10/23 03:15:05;;;;;;;14.05;5.12;;;;;;;6.95;60.12;99229.39;1734128;82;20388;-69
2021/10/23 03:17:32;;;;;;;8.75;4.12;;;;;;;6.99;60.06;99228.33;1743959;82;21110;-70
2021/10/23 03:19:58;;;;;;;10.15;4.87;;;;;;;7.01;59.89;99221.56;1735253;82;21051;-69
2021/10/23 03:22:26;;;;;;;12.45;5.28;;;;;;;7.03;59.76;99225.38;1737193;82;21604;-70
2021/10/23 03:24:53;;;;;;;7.87;4.70;;;;;;;7.03;59.62;99230.80;1743309;82;21462;-70
2021/10/23 03:27:22;;;;;;;9.35;5.08;;;;;;;7.01;59.52;99228.33;1715423;82;21816;-70
2021/10/23 03:29:50;;;;;;;11.10;5.10;;;;;;;6.97;59.53;99230.48;1708133;84;21056;-68
2021/10/23 03:32:17;;;;;;;10.95;4.92;;;;;;;6.91;59.55;99232.86;1740220;82;20987;-69
2021/10/23 03:34:45;;;;;;;9.70;5.10;;;;;;;6.86;59.64;99234.20;1714010;83;21031;-67
2021/10/23 03:37:12;;;;;;;10.00;5.40;;;;;;;6.82;59.71;99241.20;1703915;83;21038;-69
2021/10/23 03:39:40;;;;;;;12.50;5.00;;;;;;;6.76;59.74;99236.30;1723423;83;21503;-69
2021/10/23 03:42:06;;;;;;;9.70;5.05;;;;;;;6.78;59.63;99230.61;1685177;84;21530;-69
2021/10/23 03:44:34;;;;;;;11.85;5.33;;;;;;;6.79;59.52;99234.95;1702459;84;21052;-69
2021/10/23 03:47:01;;;;;;;11.93;5.00;;;;;;;6.74;59.56;99230.31;1703038;84;21035;-70
2021/10/23 03:49:28;;;;;;;11.10;5.30;;;;;;;6.71;59.57;99227.31;1696034;84;21042;-70
2021/10/23 03:51:54;;;;;;;10.82;5.30;;;;;;;6.66;59.63;99230.00;1696781;84;21051;-70
2021/10/23 03:54:21;;;;;;;9.20;4.90;;;;;;;6.61;59.71;99225.88;1703289;84;21501;-69
2021/10/23 03:56:48;;;;;;;11.83;5.03;;;;;;;6.54;59.79;99226.10;1694393;84;21075;-70
2021/10/23 03:59:14;;;;;;;11.35;4.92;;;;;;;6.50;59.91;99228.51;1699838;84;21050;-70
2021/10/23 04:01:40;;;;;;;;;;;;;;;6.45;60.05;99223.57;1703512;84;21090;-70
2021/10/23 04:04:08;;;;;;;13.90;5.65;;;;;;;6.44;60.10;99228.72;1691309;84;20506;-70
2021/10/23 04:06:36;;;;;;;10.68;4.25;;;;;;;6.36;60.22;99234.06;1702007;84;21067;-70
2021/10/23 04:09:03;;;;;;;10.03;4.33;;;;;;;6.31;60.33;99234.53;1695488;84;21063;-70
2021/10/23 04:11:30;;;;;;;10.32;5.55;;;;;;;6.26;60.40;99227.74;1688383;84;21653;-69
2021/10/23 04:13:57;;;;;;;12.15;4.97;;;;;;;6.21;60.47;99227.15;1702691;84;21584;-69
2021/10/23 04:16:25;;;;;;;14.75;4.72;;;;;;;6.18;60.56;99230.89;1686133;84;21103;-69
2021/10/23 04:18:53;;;;;;;10.55;5.12;;;;;;;6.13;60.60;99233.56;1702533;84;21062;-69
2021/10/23 04:21:20;;;;;;;10.95;4.87;;;;;;;6.11;60.69;99230.28;1700262;83;21053;-70
2021/10/23 04:23:46;;;;;;;11.25;5.45;;;;;;;6.12;60.68;99239.50;1702108;84;21105;-68
2021/10/23 04:26:12;;;;;;;12.82;4.95;;;;;;;6.09;60.73;99237.31;1703199;84;21094;-69
2021/10/23 04:28:39;;;;;;;11.60;5.20;;;;;;;6.05;60.89;99245.64;1702994;82;21057;-69
2021/10/23 04:31:05;;;;;;;11.45;5.15;;;;;;;6.02;60.93;99246.69;1699664;84;21074;-69
2021/10/23 04:33:33;;;;;;;9.35;5.12;;;;;;;5.98;60.99;99245.02;1716623;81;21522;-70
2021/10/23 04:36:00;;;;;;;13.85;5.20;;;;;;;5.94;61.08;99252.00;1751258;80;21114;-68
2021/10/23 04:38:27;;;;;;;11.55;5.47;;;;;;;5.90;61.11;99245.47;1743078;82;21003;-68
2021/10/23 04:40:53;;;;;;;10.78;5.42;;;;;;;5.95;61.10;99254.99;1747957;82;21002;-68
2021/10/23 04:43:20;;;;;;;9.80;5.00;;;;;;;5.94;61.09;99252.00;1743410;82;20995;-67
2021/10/23 04:45:48;;;;;;;10.28;4.80;;;;;;;5.89;61.20;99259.50;1739520;82;21603;-69
2021/10/23 04:48:14;;;;;;;11.90;5.60;;;;;;;5.87;61.27;99260.84;1753207;81;21061;-69
2021/10/23 04:50:40;;;;;;;11.55;5.78;;;;;;;5.84;61.40;99267.53;1749138;81;21043;-69
2021/10/23 04:53:07;;;;;;;12.95;5.12;;;;;;;5.85;61.36;99271.03;1734531;82;21050;-68
2021/10/23 04:55:34;;;;;;;10.10;4.58;;;;;;;5.84;61.37;99267.53;1742843;81;21046;-68
2021/10/23 04:58:00;;;;;;;12.10;5.28;;;;;;;5.90;61.22;99269.78;1725036;82;21043;-68
2021/10/23 05:00:27;;;;;;;;;;;;;;;5.92;61.21;99262.23;1754854;82;21114;-68
2021/10/23 05:02:53;;;;;;;11.08;5.45;;;;;;;5.89;61.29;99270.31;1737025;82;20138;-68
2021/10/23 05:05:19;;;;;;;10.88;5.33;;;;;;;5.82;61.46;99267.48;1739798;82;21098;-69
2021/10/23 05:07:46;;;;;;;11.65;5.15;;;;;;;5.83;61.53;99273.17;1737034;82;21011;-68
2021/10/23 05:10:14;;;;;;;12.90;5.45;;;;;;;5.80;61.51;99274.51;1743546;82;21088;-68
2021/10/23 05:12:41;;;;;;;13.05;5.62;;;;;;;5.82;61.51;99271.53;1743912;82;21375;-67
2021/10/23 05:15:09;;;;;;;20.08;5.58;;;;;;;5.84;61.47;99272.94;1752581;82;21605;-67
2021/10/23 05:17:36;;;;;;;16.25;6.05;;;;;;;5.92;61.29;99281.14;1752308;82;21102;-68
2021/10/23 05:20:05;;;;;;;12.70;5.42;;;;;;;5.96;61.22;99283.62;1752291;82;21067;-68
2021/10/23 05:22:33;;;;;;;14.73;6.20;;;;;;;5.94;61.18;99292.52;1732600;82;21007;-67
2021/10/23 05:25:00;;;;;;;14.15;5.22;;;;;;;5.94;61.12;99292.00;1723388;80;21113;-68
2021/10/23 05:27:26;;;;;;;10.70;5.28;;;;;;;5.98;61.06;99299.06;1719796;83;21087;-67
2021/10/23 05:29:53;;;;;;;14.30;4.92;;;;;;;6.03;60.87;99296.93;1720020;83;21537;-67
2021/10/23 05:32:20;;;;;;;11.22;4.92;;;;;;;6.11;60.64;99297.31;1724347;82;21557;-67
2021/10/23 05:34:46;;;;;;;12.98;5.20;;;;;;;6.33;60.03;99304.04;1752945;82;21043;-67
2021/10/23 05:37:12;;;;;;;12.30;5.28;;;;;;;6.33;60.03;99304.04;1755982;82;21600;-68
2021/10/23 05:39:39;;;;;;;10.82;5.12;;;;;;;6.46;59.75;99311.73;1755336;82;21102;-67
2021/10/23 05:42:06;;;;;;;8.03;4.40;;;;;;;6.71;58.86;99315.22;1755932;82;21505;-68
2021/10/23 05:44:34;;;;;;;13.18;4.92;;;;;;;6.71;58.86;99315.22;1755495;82;21121;-68
2021/10/23 05:47:00;;;;;;;10.08;4.35;;;;;;;6.81;58.85;99314.77;1755995;82;21026;-68
2021/10/23 05:49:26;;;;;;;10.80;4.55;;;;;;;6.94;58.45;99311.62;1755481;82;21054;-68
2021/10/23 05:51:54;;;;;;;10.60;4.28;;;;;;;7.10;58.06;99315.82;1755630;81;21028;-67
2021/10/23 05:54:21;;;;;;;10.32;4.15;;;;;;;7.25;57.76;99310.52;1755682;81;21018;-68
2021/10/23 05:56:48;;;;;;;8.88;4.12;;;;;;;7.41;57.48;99318.48;1755452;81;21625;-68
2021/10/23 05:59:15;;;;;;;;;;;;;;;7.59;56.94;99321.83;1757872;81;21070;-68
2021/10/23 06:01:44;;;;;;;9.85;4.70;;;;;;;7.75;56.42;99324.38;1755632;81;20118;-68
2021/10/23 06:04:11;;;;;;;9.25;4.30;;;;;;;7.84;56.31;99336.34;1755313;82;21141;-66
2021/10/23 06:06:39;;;;;;;9.50;4.40;;;;;;;8.02;55.70;99333.71;1755198;82;21051;-67
2021/10/23 06:09:05;;;;;;;9.90;4.58;;;;;;;8.25;55.22;99340.05;1719365;83;21039;-67
2021/10/23 06:11:32;;;;;;;11.35;4.42;;;;;;;8.48;54.66;99336.06;1754502;82;21062;-67
2021/10/23 06:13:59;;;;;;;9.30;5.10;;;;;;;8.70;53.78;99341.27;1755446;82;21077;-68
2021/10/23 06:16:26;;;;;;;11.20;6.17;;;;;;;8.89;53.08;99338.33;1755470;81;21652;-68
2021/10/23 06:18:54;;;;;;;17.70;8.55;;;;;;;9.08;52.72;99338.58;1729731;81;21061;-69
2021/10/23 06:21:22;;;;;;;16.77;9.75;;;;;;;9.29;52.18;99344.28;1729693;81;21078;-67
2021/10/23 06:23:49;;;;;;;28.75;18.20;;;;;;;9.48;51.42;99341.28;1754870;82;21585;-68
2021/10/23 06:26:15;;;;;;;46.65;27.50;;;;;;;9.61;50.95;99342.06;1755493;82;21027;-67
2021/10/23 06:28:42;;;;;;;74.15;44.90;;;;;;;9.76;50.49;99349.38;1756894;81;21035;-67
2021/10/23 06:31:10;;;;;;;144.55;78.02;;;;;;;9.91;50.17;99347.98;1756163;81;21089;-68
2021/10/23 06:33:38;;;;;;;56.65;33.67;;;;;;;10.07;49.79;99350.09;1749955;82;21071;-68
2021/10/23 06:36:04;;;;;;;20.72;14.03;;;;;;;10.28;49.47;99342.97;1737871;82;21043;-66
2021/10/23 06:38:31;;;;;;;16.40;10.18;;;;;;;10.47;48.59;99351.31;1731107;83;21063;-70
2021/10/23 06:40:58;;;;;;;12.63;6.40;;;;;;;10.59;48.20;99355.89;1699388;83;21115;-68
2021/10/23 06:43:25;;;;;;;8.65;4.70;;;;;;;10.77;47.76;99359.30;1747820;82;21007;-67
2021/10/23 06:48:25;;;;;;;9.03;4.13;;;;;;;11.04;46.41;99364.30;1806593;79;22843;-67
2021/10/23 06:50:53;;;;;;;10.35;4.50;;;;;;;10.93;46.59;99360.02;1742139;80;22414;-67
2021/10/23 06:53:20;;;;;;;7.67;4.28;;;;;;;11.08;46.04;99364.00;1745434;82;21041;-67
2021/10/23 06:55:46;;;;;;;8.40;4.20;;;;;;;11.19;45.77;99365.55;1746737;82;21078;-65
2021/10/23 06:58:13;;;;;;;8.53;3.75;;;;;;;11.29;45.41;99363.29;1752712;82;21071;-67
2021/10/23 07:00:40;;;;;;;11.18;5.92;;;;;;;11.40;44.88;99371.10;1753198;82;21086;-68
2021/10/23 07:03:06;;;;;;;13.40;4.65;;;;;;;11.53;45.21;99376.42;1750102;82;21518;-67
2021/10/23 07:05:33;;;;;;;7.55;3.80;;;;;;;11.75;44.75;99384.98;1732720;82;21071;-67
2021/10/23 07:08:01;;;;;;;10.15;4.22;;;;;;;11.90;43.73;99383.44;1722708;83;21054;-68
2021/10/23 07:10:28;;;;;;;8.50;4.15;;;;;;;11.94;43.49;99376.31;1723079;82;21604;-69
2021/10/23 07:12:56;;;;;;;17.62;10.70;;;;;;;12.01;43.86;99375.17;1725557;82;21070;-68
2021/10/23 07:15:23;;;;;;;12.30;6.22;;;;;;;12.19;43.07;99380.67;1752636;82;21047;-70
2021/10/23 07:17:49;;;;;;;7.60;3.45;;;;;;;12.23;43.12;99372.71;1741232;82;21025;-68
2021/10/23 07:20:15;;;;;;;;;;;;;;;12.31;42.89;99378.35;1725555;83;21023;-69
2021/10/23 07:22:42;;;;;;;7.85;3.98;;;;;;;12.37;42.56;99381.82;1734245;82;20150;-66
2021/10/23 07:25:08;;;;;;;;;;;;;;;12.33;43.00;99376.68;1731969;82;21062;-69
2021/10/23 07:27:35;;;;;;;9.10;3.10;;;;;;;12.54;42.78;99374.53;1742368;82;20115;-68
2021/10/23 07:30:06;;;;;;;7.35;3.58;;;;;;;12.58;42.23;99375.55;1722962;83;21066;-69
2021/10/23 07:32:32;;;;;;;6.78;3.00;;;;;;;12.63;42.42;99383.68;1732301;82;21058;-69
2021/10/23 07:34:58;;;;;;;6.00;2.95;;;;;;;12.73;42.13;99386.27;1732420;82;21557;-68
2021/10/23 07:37:24;;;;;;;;;;;;;;;12.83;41.82;99388.30;1753857;82;20995;-68
2021/10/23 07:39:52;;;;;;;5.83;2.30;;;;;;;12.95;41.59;99389.24;1744299;82;20468;-69
2021/10/23 07:42:18;;;;;;;;;;;;;;;13.08;42.01;99385.75;1743288;82;21108;-68
2021/10/23 07:44:45;;;;;;;9.78;2.72;;;;;;;13.34;40.78;99387.58;1752675;81;20190;-68
2021/10/23 07:47:11;;;;;;;7.12;2.42;;;;;;;13.28;40.61;99401.08;1750945;81;21512;-68
2021/10/23 07:49:40;;;;;;;7.28;2.30;;;;;;;13.31;40.30;99399.93;1753417;82;21082;-68
2021/10/23 07:52:06;;;;;;;5.75;2.25;;;;;;;13.39;40.17;99401.18;1752299;82;21035;-69
2021/10/23 07:54:34;;;;;;;7.92;2.45;;;;;;;13.59;40.20;99401.38;1745911;82;21020;-69
2021/10/23 07:57:02;;;;;;;;;;;;;;;13.83;39.88;99391.11;1727357;82;21058;-68
2021/10/23 07:59:29;;;;;;;6.58;2.62;;;;;;;13.92;39.09;99411.20;1733515;82;20452;-68
2021/10/23 08:02:07;;;;;;;6.95;3.62;;;;;;;13.81;39.54;99427.55;1723040;83;21118;-69
2021/10/23 08:04:35;;;;;;;7.30;2.87;;;;;;;13.94;39.61;99426.75;1723114;83;21027;-69
2021/10/23 08:07:05;;;;;;;7.03;3.60;;;;;;;14.08;39.40;99427.59;1731190;82;21023;-68
2021/10/23 08:09:38;;;;;;;8.93;2.90;;;;;;;14.00;38.84;99424.17;1731975;82;21035;-68
2021/10/23 08:12:07;;;;;;;7.92;2.90;;;;;;;13.63;39.31;99431.13;1732899;82;20967;-67
2021/10/23 08:14:33;;;;;;;6.37;2.92;;;;;;;13.41;40.09;99429.84;1736482;82;20989;-68
2021/10/23 08:17:00;;;;;;;;;;;;;;;13.34;40.21;99428.03;1754296;82;21711;-67
2021/10/23 08:19:26;;;;;;;6.28;2.95;;;;;;;13.37;40.23;99435.64;1746576;82;20134;-68
2021/10/23 08:25:08;;;;;;;6.30;2.95;;;;;;;13.21;40.13;99452.58;1723606;80;21601;-65
2021/10/23 08:27:37;;;;;;;9.15;2.85;;;;;;;12.81;40.58;99449.81;1726011;82;21539;-68
2021/10/23 08:30:07;;;;;;;9.05;2.58;;;;;;;12.65;41.14;99448.36;1704975;84;21109;-67
2021/10/23 08:32:33;;;;;;;6.90;2.40;;;;;;;12.73;41.31;99446.35;1730420;82;21468;-68
2021/10/23 08:35:00;;;;;;;8.10;2.95;;;;;;;12.79;40.94;99462.38;1740328;82;21056;-69
2021/10/23 08:37:26;;;;;;;9.13;3.10;;;;;;;12.77;41.48;99461.88;1740525;82;21030;-69
2021/10/23 08:39:53;;;;;;;7.95;2.45;;;;;;;12.87;41.11;99460.37;1733989;82;21051;-68
2021/10/23 08:42:19;;;;;;;5.12;2.20;;;;;;;12.99;41.25;99472.25;1735913;82;21033;-68
2021/10/23 08:44:45;;;;;;;;;;;;;;;13.07;40.48;99456.57;1742814;82;21152;-68
2021/10/23 08:47:15;;;;;;;8.45;2.67;;;;;;;13.07;40.75;99471.59;1740251;82;20175;-68
2021/10/23 08:49:41;;;;;;;6.40;2.60;;;;;;;13.13;40.49;99469.08;1740055;81;21686;-70
2021/10/23 08:52:07;;;;;;;;;;;;;;;13.36;40.01;99502.35;1694612;82;21407;-69
2021/10/23 08:54:34;;;;;;;5.03;2.37;;;;;;;13.44;39.38;99474.35;1720513;82;20135;-71
2021/10/23 08:57:01;;;;;;;5.58;2.37;;;;;;;13.19;39.61;99473.91;1735878;82;21064;-68
2021/10/23 08:59:29;;;;;;;6.30;2.40;;;;;;;13.06;40.13;99475.43;1737981;81;21097;-67
2021/10/23 09:01:57;;;;;;;;;;;;;;;13.18;40.59;99481.28;1742988;82;21053;-67
2021/10/23 09:04:27;;;;;;;5.40;2.50;;;;;;;13.58;40.17;99481.80;1733795;82;20386;-68
2021/10/23 09:06:53;;;;;;;7.50;2.45;;;;;;;13.85;39.27;99485.44;1674017;85;21070;-67
2021/10/23 09:09:20;;;;;;;7.03;2.80;;;;;;;14.27;38.82;99485.01;1688381;84;21631;-69
2021/10/23 09:11:47;;;;;;;;;;;;;;;14.67;37.84;99473.84;1708969;83;21022;-68
2021/10/23 09:14:34;;;;;;;6.53;2.70;;;;;;;14.82;36.98;99484.50;1706150;83;20165;-68
2021/10/23 09:17:08;;;;;;;8.98;3.60;;;;;;;14.62;37.35;99487.66;1735215;83;21110;-68
2021/10/23 09:19:46;;;;;;;8.95;3.30;;;;;;;14.68;37.35;99491.35;1733069;83;21615;-67
2021/10/23 09:22:28;;;;;;;7.05;2.83;;;;;;;14.55;37.04;99489.98;1713307;83;21024;-67
2021/10/23 09:25:27;;;;;;;5.78;2.10;;;;;;;14.20;37.49;99490.06;1722512;81;21163;-67
2021/10/23 09:28:08;;;;;;;7.45;2.27;;;;;;;14.09;38.01;99488.62;1758896;81;20942;-68
2021/10/23 09:30:48;;;;;;;4.85;1.82;;;;;;;13.82;37.75;99489.33;1743767;80;21539;-68
2021/10/23 09:33:23;;;;;;;4.55;1.98;;;;;;;13.50;38.36;99494.80;1758331;81;21037;-68
2021/10/23 09:35:56;;;;;;;4.80;1.72;;;;;;;13.35;38.76;99496.65;1758626;80;21052;-68
2021/10/23 09:38:25;;;;;;;4.47;1.87;;;;;;;13.13;38.97;99495.04;1763198;81;21017;-68
2021/10/23 09:40:56;;;;;;;7.45;2.35;;;;;;;13.08;39.53;99495.06;1756330;81;21031;-67
2021/10/23 09:43:28;;;;;;;6.83;1.82;;;;;;;13.22;38.76;99509.66;1758795;81;20987;-67
2021/10/23 09:46:01;;;;;;;9.10;1.80;;;;;;;12.92;38.75;99496.38;1755781;81;21098;-67
2021/10/23 09:48:42;;;;;;;9.15;2.33;;;;;;;12.56;39.37;99499.27;1745837;82;21018;-68
2021/10/23 09:51:23;;;;;;;4.80;1.52;;;;;;;12.27;39.70;99503.39;1748817;81;21582;-68
2021/10/23 09:54:00;;;;;;;7.92;2.37;;;;;;;11.94;40.16;99502.33;1755469;80;21454;-66
2021/10/23 09:56:30;;;;;;;4.65;2.12;;;;;;;11.63;40.86;99496.84;1741409;81;20996;-66
2021/10/23 09:59:08;;;;;;;4.37;1.92;;;;;;;11.47;41.38;99503.78;1733042;81;20996;-66
2021/10/23 10:01:42;;;;;;;8.30;2.47;;;;;;;11.40;41.93;99506.02;1732964;83;21008;-67
2021/10/23 10:04:08;;;;;;;6.97;2.40;;;;;;;11.40;42.26;99507.38;1739478;81;21054;-68
2021/10/23 10:06:43;;;;;;;6.37;2.52;;;;;;;11.35;42.32;99510.66;1761397;81;21018;-67
2021/10/23 10:09:18;;;;;;;8.18;2.47;;;;;;;11.21;42.60;99510.48;1754156;80;21042;-66
2021/10/23 10:11:47;;;;;;;6.47;2.27;;;;;;;11.09;42.87;99514.64;1747898;81;20935;-66
2021/10/23 10:14:14;;;;;;;5.28;2.02;;;;;;;10.95;42.85;99511.14;1748316;81;21105;-67
2021/10/23 10:16:45;;;;;;;7.58;2.62;;;;;;;10.85;42.84;99510.38;1704282;84;20995;-65
2021/10/23 10:19:16;;;;;;;4.50;1.80;;;;;;;10.72;42.88;99519.15;1695477;84;21046;-66
2021/10/23 10:21:42;;;;;;;4.87;2.20;;;;;;;10.63;42.98;99514.02;1696926;84;21030;-67
2021/10/23 10:24:32;;;;;;;7.62;1.60;;;;;;;10.53;42.75;99513.48;1720772;83;21572;-65
2021/10/23 10:27:09;;;;;;;4.70;1.37;;;;;;;10.40;42.63;99525.77;1763408;81;20965;-66
2021/10/23 10:29:44;;;;;;;7.20;1.40;;;;;;;10.33;42.79;99518.45;1755553;81;21048;-66
2021/10/23 10:32:32;;;;;;;5.60;1.90;;;;;;;10.39;42.72;99506.45;1746616;81;21461;-66
2021/10/23 10:40:28;;;;;;;4.47;1.52;;;;;;;11.00;41.67;99504.87;1760958;81;21106;-66
2021/10/23 10:43:05;;;;;;;5.92;1.67;;;;;;;11.20;41.50;99503.39;1702220;84;21533;-65
2021/10/23 10:45:46;;;;;;;5.05;1.55;;;;;;;11.42;41.20;99505.71;1738937;81;21070;-67
2021/10/23 10:48:36;;;;;;;7.53;2.10;;;;;;;11.61;41.37;99494.95;1760333;81;20996;-66
2021/10/23 10:51:12;;;;;;;4.87;2.02;;;;;;;11.82;40.51;99515.55;1755583;82;21035;-68
2021/10/23 10:53:42;;;;;;;5.67;1.67;;;;;;;11.97;40.17;99519.52;1757447;81;20956;-68
2021/10/23 10:56:12;;;;;;;5.47;1.35;;;;;;;12.16;39.55;99529.16;1757125;81;21375;-69
2021/10/23 10:58:57;;;;;;;4.62;1.30;;;;;;;12.20;38.03;99520.66;1761994;81;21413;-68
2021/10/23 11:01:33;;;;;;;4.65;1.80;;;;;;;12.15;37.81;99518.78;1763213;80;21069;-67
2021/10/23 11:04:10;;;;;;;4.42;1.42;;;;;;;12.23;37.51;99531.81;1763382;79;20922;-67
2021/10/23 11:06:49;;;;;;;7.58;2.87;;;;;;;12.29;36.74;99533.38;1762965;80;21004;-68
2021/10/23 11:09:25;;;;;;;7.78;1.80;;;;;;;12.13;37.02;99544.19;1767620;79;21077;-68
2021/10/23 11:11:57;;;;;;;7.90;2.27;;;;;;;11.95;37.80;99546.25;1761435;81;20995;-69
2021/10/23 11:14:36;;;;;;;4.83;1.57;;;;;;;11.84;38.35;99541.97;1702238;83;21051;-68
2021/10/23 11:17:14;;;;;;;4.83;2.08;;;;;;;11.78;37.62;99556.20;1754311;81;21071;-68
2021/10/23 11:19:54;;;;;;;5.67;1.95;;;;;;;11.78;37.67;99549.94;1744937;81;21025;-67
2021/10/23 11:22:28;;;;;;;7.10;1.80;;;;;;;12.17;37.32;99547.16;1758544;81;20961;-68
2021/10/23 11:25:05;;;;;;;3.95;1.85;;;;;;;12.70;37.10;99558.92;1733310;81;21053;-68
2021/10/23 11:27:43;;;;;;;7.22;1.50;;;;;;;13.41;36.19;99541.12;1719598;83;21000;-67
2021/10/23 11:30:22;;;;;;;3.05;1.25;;;;;;;14.01;35.48;99544.85;1694629;85;21070;-68
2021/10/23 11:32:57;;;;;;;4.20;1.70;;;;;;;14.53;34.44;99534.66;1725114;83;20998;-67
2021/10/23 11:35:44;;;;;;;9.43;4.87;;;;;;;14.98;33.93;99545.30;1721189;82;21648;-67
2021/10/23 11:38:24;;;;;;;4.53;1.40;;;;;;;15.53;33.83;99553.73;1722782;83;21026;-67
2021/10/23 11:40:58;;;;;;;6.62;1.50;;;;;;;16.15;32.21;99547.06;1712552;82;21047;-68
2021/10/23 11:43:30;;;;;;;4.67;1.40;;;;;;;16.31;31.05;99543.60;1694922;84;20941;-68
2021/10/23 11:45:57;;;;;;;4.55;1.25;;;;;;;15.85;30.37;99552.16;1702677;83;21003;-68
2021/10/23 11:48:25;;;;;;;4.35;1.32;;;;;;;14.93;31.01;99572.25;1725130;83;21002;-68
2021/10/23 11:50:52;;;;;;;;;;;;;;;13.93;32.56;99572.88;1725700;82;21042;-66
2021/10/23 11:53:22;;;;;;;;;;;;;;;13.18;33.95;99572.06;1727972;83;20419;-67
2021/10/23 11:56:03;;;;;;;4.97;1.37;;;;;;;12.67;35.31;99575.34;1700018;82;20108;-67
2021/10/23 11:58:33;;;;;;;5.08;1.30;;;;;;;12.34;35.64;99579.75;1670336;86;21036;-66